createdAt,value
2023-03-22T00:00:40.753Z,9.23
2023-03-22T00:03:07.404Z,10.75
2023-03-22T00:05:33.872Z,8.55
2023-03-22T00:08:01.466Z,12.75
2023-03-22T00:10:27.866Z,13.90
2023-03-22T00:12:54.803Z,12.88
2023-03-22T00:15:21.289Z,11.63
2023-03-22T00:17:47.691Z,12.63
2023-03-22T00:20:14.110Z,13.20
2023-03-22T00:22:40.513Z,10.35
2023-03-22T00:25:07.278Z,12.63
2023-03-22T00:27:33.705Z,10.32
2023-03-22T00:30:00.141Z,12.07
2023-03-22T00:32:26.574Z,12.63
2023-03-22T00:34:53.017Z,10.20
2023-03-22T00:37:19.450Z,14.43
2023-03-22T00:39:45.981Z,13.02
2023-03-22T00:42:12.414Z,13.10
2023-03-22T00:44:38.880Z,13.02
2023-03-22T00:47:05.353Z,13.60
2023-03-22T00:49:31.769Z,13.02
2023-03-22T00:51:58.212Z,10.90
2023-03-22T00:54:24.677Z,12.13
2023-03-22T00:56:51.108Z,13.88
2023-03-22T00:59:18.696Z,12.48
2023-03-22T01:01:45.132Z,11.75
2023-03-22T01:04:11.534Z,16.35
2023-03-22T01:06:38.024Z,13.32
2023-03-22T01:09:04.492Z,14.43
2023-03-22T01:11:30.971Z,14.77
2023-03-22T01:13:57.457Z,13.35
2023-03-22T01:16:23.987Z,11.30
2023-03-22T01:18:50.420Z,11.82
2023-03-22T01:21:16.840Z,14.70
2023-03-22T01:23:43.243Z,13.45
2023-03-22T01:26:09.725Z,12.52
2023-03-22T01:28:36.131Z,15.50
2023-03-22T01:31:02.814Z,13.45
2023-03-22T01:33:29.633Z,13.82
2023-03-22T01:35:56.249Z,13.65
2023-03-22T01:38:22.680Z,13.32
2023-03-22T01:40:49.088Z,12.77
2023-03-22T01:43:15.886Z,12.98
2023-03-22T01:45:48.050Z,13.75
2023-03-22T01:48:21.151Z,16.10
2023-03-22T01:51:13.409Z,13.45
2023-03-22T01:53:43.139Z,12.43
2023-03-22T01:58:36.601Z,13.57
2023-03-22T02:01:03.883Z,12.10
2023-03-22T02:03:48.600Z,16.52
2023-03-22T02:06:15.017Z,16.55
2023-03-22T02:08:41.467Z,14.82
2023-03-22T02:11:07.900Z,14.68
2023-03-22T02:13:40.432Z,14.60
2023-03-22T02:16:29.527Z,15.27
2023-03-22T02:19:26.552Z,15.57
2023-03-22T02:22:05.013Z,13.80
2023-03-22T02:24:45.193Z,14.60
2023-03-22T02:27:34.040Z,15.52
2023-03-22T02:30:02.594Z,12.23
2023-03-22T02:32:57.866Z,14.55
2023-03-22T02:35:52.716Z,12.80
2023-03-22T02:38:50.867Z,11.48
2023-03-22T02:41:20.191Z,13.52
2023-03-22T02:43:52.617Z,13.43
2023-03-22T02:46:23.112Z,12.80
2023-03-22T02:49:34.663Z,14.13
2023-03-22T02:52:12.753Z,15.43
2023-03-22T02:54:50.119Z,13.13
2023-03-22T02:57:31.027Z,14.07
2023-03-22T02:59:57.458Z,15.10
2023-03-22T03:02:23.936Z,12.48
2023-03-22T03:04:50.512Z,15.63
2023-03-22T03:07:19.789Z,11.98
2023-03-22T03:09:46.230Z,13.98
2023-03-22T03:12:18.815Z,15.90
2023-03-22T03:14:45.224Z,13.15
2023-03-22T03:18:01.133Z,13.70
2023-03-22T03:20:38.382Z,11.00
2023-03-22T03:23:10.482Z,12.10
2023-03-22T03:25:40.428Z,12.07
2023-03-22T03:28:18.648Z,12.70
2023-03-22T03:31:11.150Z,12.60
2023-03-22T03:33:41.549Z,12.13
2023-03-22T03:36:09.584Z,12.50
2023-03-22T03:38:37.949Z,13.20
2023-03-22T03:41:06.633Z,13.48
2023-03-22T03:43:33.136Z,10.80
2023-03-22T03:45:59.966Z,12.38
2023-03-22T03:48:29.142Z,14.27
2023-03-22T03:50:56.460Z,12.25
2023-03-22T03:53:23.214Z,11.95
2023-03-22T03:55:49.657Z,12.50
2023-03-22T03:58:16.115Z,9.88
2023-03-22T04:00:42.907Z,12.88
2023-03-22T04:03:09.345Z,12.48
2023-03-22T04:05:35.782Z,12.25
2023-03-22T04:08:02.226Z,14.27
2023-03-22T04:10:28.663Z,12.38
2023-03-22T04:12:55.078Z,12.43
2023-03-22T04:15:21.556Z,12.32
2023-03-22T04:17:48.035Z,11.77
2023-03-22T04:20:14.450Z,12.23
2023-03-22T04:22:40.999Z,14.43
2023-03-22T04:25:08.997Z,12.25
2023-03-22T04:27:35.399Z,9.77
2023-03-22T04:30:01.836Z,13.20
2023-03-22T04:32:28.282Z,9.70
2023-03-22T04:34:54.828Z,10.85
2023-03-22T04:37:21.417Z,11.38
2023-03-22T04:39:47.844Z,10.35
2023-03-22T04:42:14.287Z,11.20
2023-03-22T04:44:40.752Z,10.70
2023-03-22T04:47:07.169Z,13.23
2023-03-22T04:49:33.578Z,10.85
2023-03-22T04:52:00.018Z,11.80
2023-03-22T04:54:26.412Z,11.13
2023-03-22T04:56:52.839Z,9.45
2023-03-22T04:59:19.287Z,11.98
2023-03-22T05:01:48.914Z,10.50
2023-03-22T05:04:15.714Z,11.00
2023-03-22T05:06:42.236Z,11.52
2023-03-22T05:09:08.769Z,11.82
2023-03-22T05:11:35.177Z,10.95
2023-03-22T05:14:01.680Z,9.48
2023-03-22T05:16:28.216Z,12.45
2023-03-22T05:18:54.868Z,11.82
2023-03-22T05:21:25.015Z,12.90
2023-03-22T05:23:51.678Z,11.52
2023-03-22T05:26:18.105Z,10.27
2023-03-22T05:28:44.542Z,9.20
2023-03-22T05:31:11.089Z,10.43
2023-03-22T05:33:37.597Z,9.88
2023-03-22T05:36:04.065Z,11.32
2023-03-22T05:38:30.542Z,10.93
2023-03-22T05:40:57.073Z,9.55
2023-03-22T05:43:23.550Z,9.35
2023-03-22T05:45:49.989Z,10.80
2023-03-22T05:48:16.889Z,11.40
2023-03-22T05:50:43.385Z,11.65
2023-03-22T05:53:09.802Z,9.40
2023-03-22T05:55:36.259Z,9.48
2023-03-22T05:58:02.704Z,9.55
2023-03-22T06:00:29.125Z,9.07
2023-03-22T06:02:55.596Z,9.55
2023-03-22T06:05:22.274Z,10.10
2023-03-22T06:07:48.736Z,7.53
2023-03-22T06:10:15.371Z,10.30
2023-03-22T06:12:41.825Z,8.68
2023-03-22T06:15:09.035Z,10.32
2023-03-22T06:17:35.483Z,7.82
2023-03-22T06:20:03.055Z,7.43
2023-03-22T06:22:29.495Z,9.52
2023-03-22T06:24:55.905Z,12.20
2023-03-22T06:27:22.428Z,11.80
2023-03-22T06:29:48.889Z,9.63
2023-03-22T06:32:15.335Z,10.50
2023-03-22T06:34:41.766Z,8.48
2023-03-22T06:37:08.199Z,8.18
2023-03-22T06:39:34.621Z,8.52
2023-03-22T06:42:01.051Z,9.27
2023-03-22T06:44:27.488Z,7.78
2023-03-22T06:46:53.905Z,6.55
2023-03-22T06:49:20.346Z,8.63
2023-03-22T06:51:46.775Z,7.38
2023-03-22T06:54:13.212Z,9.05
2023-03-22T06:56:39.709Z,8.45
2023-03-22T06:59:06.132Z,14.10
2023-03-22T07:01:32.636Z,7.55
2023-03-22T07:03:59.153Z,6.88
2023-03-22T07:06:25.676Z,8.32
2023-03-22T07:08:52.258Z,8.35
2023-03-22T07:11:18.712Z,6.80
2023-03-22T07:13:45.161Z,8.40
2023-03-22T07:16:11.740Z,7.63
2023-03-22T07:18:38.206Z,7.28
2023-03-22T07:21:04.904Z,7.22
2023-03-22T07:23:31.298Z,8.85
2023-03-22T07:25:57.728Z,8.48
2023-03-22T07:28:24.270Z,12.07
2023-03-22T07:30:59.848Z,7.05
2023-03-22T07:35:53.766Z,6.95
2023-03-22T07:38:20.200Z,9.00
2023-03-22T07:40:46.630Z,8.18
2023-03-22T07:43:13.070Z,8.30
2023-03-22T07:45:39.591Z,9.85
2023-03-22T07:48:06.102Z,8.50
2023-03-22T07:50:32.721Z,12.60
2023-03-22T07:52:59.184Z,10.63
2023-03-22T07:55:25.622Z,8.88
2023-03-22T07:57:52.059Z,10.93
2023-03-22T08:00:18.805Z,8.95
2023-03-22T08:02:45.282Z,8.85
2023-03-22T08:05:11.725Z,9.50
2023-03-22T08:07:38.177Z,11.60
2023-03-22T08:10:04.964Z,10.05
2023-03-22T08:12:31.382Z,8.80
2023-03-22T08:14:57.818Z,9.55
2023-03-22T08:17:24.339Z,11.68
2023-03-22T08:19:50.758Z,10.65
2023-03-22T08:22:17.202Z,10.45
2023-03-22T08:24:43.686Z,11.60
2023-03-22T08:27:10.108Z,10.05
2023-03-22T08:29:36.542Z,10.52
2023-03-22T08:32:03.018Z,11.63
2023-03-22T08:34:30.241Z,9.63
2023-03-22T08:36:56.871Z,10.80
2023-03-22T08:39:24.350Z,10.00
2023-03-22T08:41:51.171Z,11.93
2023-03-22T08:44:19.082Z,10.88
2023-03-22T08:46:45.531Z,9.63
2023-03-22T08:49:11.966Z,9.10
2023-03-22T08:51:39.227Z,11.50
2023-03-22T08:54:05.793Z,7.70
2023-03-22T08:56:32.283Z,9.30
2023-03-22T08:58:58.736Z,8.77
2023-03-22T09:01:25.294Z,8.18
2023-03-22T09:03:51.813Z,8.70
2023-03-22T09:06:18.249Z,7.80
2023-03-22T09:08:44.734Z,7.55
2023-03-22T09:11:11.483Z,10.57
2023-03-22T09:13:37.947Z,11.77
2023-03-22T09:16:05.649Z,8.60
2023-03-22T09:18:32.152Z,10.18
2023-03-22T09:20:58.634Z,7.75
2023-03-22T09:23:25.072Z,6.00
2023-03-22T09:25:51.788Z,9.75
2023-03-22T09:28:18.336Z,9.02
2023-03-22T09:30:44.824Z,7.57
2023-03-22T09:33:11.311Z,6.93
2023-03-22T09:35:41.289Z,7.05
2023-03-22T09:38:08.289Z,7.40
2023-03-22T09:40:35.067Z,7.82
2023-03-22T09:43:03.023Z,8.75
2023-03-22T09:45:39.067Z,5.78
2023-03-22T09:48:43.583Z,7.97
2023-03-22T09:51:35.854Z,5.57
2023-03-22T09:54:02.357Z,5.60
2023-03-22T09:56:29.997Z,6.95
2023-03-22T09:59:16.472Z,7.43
2023-03-22T10:01:53.977Z,6.57
2023-03-22T10:04:29.990Z,9.15
2023-03-22T10:07:45.641Z,4.90
2023-03-22T10:10:16.743Z,4.60
2023-03-22T10:12:54.003Z,4.68
2023-03-22T10:15:26.699Z,4.95
2023-03-22T10:17:53.826Z,4.10
2023-03-22T10:20:23.454Z,3.85
2023-03-22T10:22:52.186Z,6.75
2023-03-22T10:25:21.512Z,4.13
2023-03-22T10:27:49.173Z,4.05
2023-03-22T10:30:26.358Z,3.75
2023-03-22T10:32:58.325Z,8.23
2023-03-22T10:35:24.959Z,4.57
2023-03-22T10:37:51.525Z,3.50
2023-03-22T10:40:29.478Z,3.33
2023-03-22T10:43:25.003Z,5.45
2023-03-22T10:45:52.802Z,3.63
2023-03-22T10:48:29.897Z,4.47
2023-03-22T10:50:56.623Z,7.93
2023-03-22T10:53:45.237Z,3.35
2023-03-22T10:56:13.888Z,5.97
2023-03-22T10:58:40.337Z,5.07
2023-03-22T11:01:34.228Z,3.75
2023-03-22T11:04:23.865Z,4.80
2023-03-22T11:06:56.120Z,5.82
2023-03-22T11:09:23.916Z,3.38
2023-03-22T11:11:51.975Z,3.50
2023-03-22T11:14:31.119Z,2.85
2023-03-22T11:17:06.819Z,4.85
2023-03-22T11:19:36.841Z,5.32
2023-03-22T11:22:06.174Z,4.85
2023-03-22T11:24:33.043Z,4.82
2023-03-22T11:27:02.440Z,3.85
2023-03-22T11:29:28.909Z,5.65
2023-03-22T11:31:56.283Z,3.60
2023-03-22T11:34:24.591Z,7.18
2023-03-22T11:36:51.071Z,3.72
2023-03-22T11:39:17.577Z,4.50
2023-03-22T11:41:44.051Z,4.93
2023-03-22T11:44:16.028Z,3.70
2023-03-22T11:46:51.424Z,2.95
2023-03-22T11:49:17.888Z,3.63
2023-03-22T11:51:44.391Z,3.97
2023-03-22T11:54:30.740Z,3.90
2023-03-22T11:57:02.165Z,5.93
2023-03-22T11:59:30.506Z,4.90
2023-03-22T12:02:22.559Z,5.57
2023-03-22T12:04:50.248Z,8.90
2023-03-22T12:07:17.568Z,5.70
2023-03-22T12:10:00.265Z,3.35
2023-03-22T12:12:32.719Z,4.95
2023-03-22T12:15:02.649Z,3.33
2023-03-22T12:17:40.421Z,3.75
2023-03-22T12:20:32.900Z,4.03
2023-03-22T12:22:59.433Z,3.58
2023-03-22T12:25:29.218Z,2.80
2023-03-22T12:28:01.571Z,3.85
2023-03-22T12:30:31.758Z,5.13
2023-03-22T12:33:04.419Z,4.38
2023-03-22T12:35:33.585Z,5.75
2023-03-22T12:38:03.129Z,5.90
2023-03-22T12:40:32.324Z,6.93
2023-03-22T12:43:07.918Z,4.20
2023-03-22T12:45:39.491Z,3.85
2023-03-22T12:48:16.350Z,4.70
2023-03-22T12:50:45.422Z,3.92
2023-03-22T12:53:16.247Z,3.53
2023-03-22T12:55:43.146Z,5.88
2023-03-22T12:58:09.982Z,3.45
2023-03-22T13:00:36.331Z,4.30
2023-03-22T13:03:19.207Z,3.65
2023-03-22T13:05:47.370Z,4.00
2023-03-22T13:08:21.208Z,4.65
2023-03-22T13:11:02.176Z,4.72
2023-03-22T13:13:28.490Z,5.32
2023-03-22T13:16:00.553Z,5.32
2023-03-22T13:18:36.103Z,8.13
2023-03-22T13:23:57.622Z,5.85
2023-03-22T13:26:42.937Z,6.43
2023-03-22T13:29:20.872Z,6.07
2023-03-22T13:31:53.644Z,6.07
2023-03-22T13:34:21.868Z,8.40
2023-03-22T13:36:53.105Z,6.97
2023-03-22T13:39:19.724Z,6.10
2023-03-22T13:41:47.790Z,7.15
2023-03-22T13:44:29.020Z,6.47
2023-03-22T13:46:58.368Z,5.63
2023-03-22T13:49:35.787Z,8.00
2023-03-22T13:52:02.240Z,5.93
2023-03-22T13:54:37.596Z,7.38
2023-03-22T13:57:04.112Z,6.13
2023-03-22T13:59:31.821Z,6.45
2023-03-22T14:02:23.405Z,4.47
2023-03-22T14:05:08.733Z,5.43
2023-03-22T14:07:39.225Z,4.70
2023-03-22T14:10:22.258Z,4.40
2023-03-22T14:12:49.712Z,5.18
2023-03-22T14:15:27.202Z,4.60
2023-03-22T14:18:02.934Z,4.45
2023-03-22T14:20:35.072Z,4.40
